Time,TemperatureF,DewpointF,PressureIn,WindDirection,WindDirectionDegrees,WindSpeedMPH,WindSpeedGustMPH,Humidity,HourlyPrecipIn,Conditions,Clouds,dailyrainin,SoftwareType,DateUTC
2013-01-26 00:06:00,13.0,11.0,30.11,North,0,4.0,4.0,94,0.00,,,0.00,TxWx,2013-01-26 05:06:00,
2013-01-26 00:11:00,13.0,11.0,30.11,North,0,1.0,3.0,94,0.00,,,0.00,TxWx,2013-01-26 05:11:00,
2013-01-26 00:18:00,13.0,11.0,30.11,NNW,337,3.0,3.0,94,0.00,,,0.00,TxWx,2013-01-26 05:18:00,
2013-01-26 00:23:00,13.0,11.0,30.11,NNW,337,3.0,3.0,94,0.00,,,0.00,TxWx,2013-01-26 05:23:00,
2013-01-26 00:29:00,13.0,11.0,30.11,ESE,112,0.0,1.0,94,0.00,,,0.00,TxWx,2013-01-26 05:29:00,
2013-01-26 00:35:00,13.0,11.0,30.11,NNW,337,3.0,3.0,94,0.00,,,0.00,TxWx,2013-01-26 05:35:00,
2013-01-26 00:40:00,12.0,10.0,30.11,NNE,22,1.0,2.0,94,0.00,,,0.00,TxWx,2013-01-26 05:40:00,
2013-01-26 00:45:00,12.0,10.0,30.11,WNW,292,3.0,3.0,94,0.00,,,0.00,TxWx,2013-01-26 05:45:00,
2013-01-26 00:50:00,12.0,10.0,30.11,West,270,3.0,3.0,94,0.00,,,0.00,TxWx,2013-01-26 05:50:00,
2013-01-26 00:55:00,12.0,10.0,30.11,NW,315,2.0,3.0,94,0.00,,,0.00,TxWx,2013-01-26 05:55:00,
2013-01-26 01:00:00,12.0,10.0,30.11,WNW,292,3.0,4.0,94,0.00,,,0.00,TxWx,2013-01-26 06:00:00,
2013-01-26 01:05:00,12.0,10.0,30.11,NW,315,3.0,4.0,94,0.00,,,0.00,TxWx,2013-01-26 06:05:00,
2013-01-26 01:10:00,11.0,10.0,30.11,West,270,4.0,5.0,94,0.00,,,0.00,TxWx,2013-01-26 06:10:00,
2013-01-26 01:15:00,11.0,9.0,30.11,WNW,292,3.0,3.0,94,0.00,,,0.00,TxWx,2013-01-26 06:15:00,
2013-01-26 01:20:00,11.0,9.0,30.11,NW,315,2.0,3.0,94,0.00,,,0.00,TxWx,2013-01-26 06:20:00,
2013-01-26 01:25:00,11.0,9.0,30.11,WNW,292,2.0,3.0,94,0.00,,,0.00,TxWx,2013-01-26 06:25:00,
2013-01-26 01:30:00,11.0,9.0,30.10,North,0,0.0,1.0,95,0.00,,,0.00,TxWx,2013-01-26 06:30:00,
2013-01-26 01:35:00,11.0,9.0,30.10,WNW,292,3.0,4.0,95,0.00,,,0.00,TxWx,2013-01-26 06:35:00,
2013-01-26 01:41:00,11.0,9.0,30.10,West,270,3.0,3.0,95,0.00,,,0.00,TxWx,2013-01-26 06:41:00,
2013-01-26 01:46:00,11.0,9.0,30.10,NW,315,3.0,4.0,95,0.00,,,0.00,TxWx,2013-01-26 06:46:00,
2013-01-26 01:51:00,11.0,9.0,30.10,NW,315,3.0,3.0,95,0.00,,,0.00,TxWx,2013-01-26 06:51:00,
2013-01-26 01:56:00,11.0,9.0,30.10,WNW,292,3.0,3.0,95,0.00,,,0.00,TxWx,2013-01-26 06:56:00,
2013-01-26 02:01:00,11.0,9.0,30.10,WNW,292,2.0,2.0,95,0.00,,,0.00,TxWx,2013-01-26 07:01:00,
2013-01-26 02:06:00,11.0,9.0,30.10,West,270,2.0,3.0,95,0.00,,,0.00,TxWx,2013-01-26 07:06:00,
2013-01-26 02:11:00,11.0,9.0,30.10,West,270,5.0,5.0,95,0.00,,,0.00,TxWx,2013-01-26 07:11:00,
2013-01-26 02:16:00,11.0,9.0,30.10,WNW,292,2.0,3.0,95,0.00,,,0.00,TxWx,2013-01-26 07:16:00,
2013-01-26 02:21:00,11.0,9.0,30.10,West,270,4.0,5.0,95,0.00,,,0.00,TxWx,2013-01-26 07:21:00,
2013-01-26 02:26:00,11.0,9.0,30.10,West,270,0.0,0.0,95,0.00,,,0.00,TxWx,2013-01-26 07:26:00,
2013-01-26 02:31:00,11.0,9.0,30.10,WNW,292,3.0,4.0,95,0.00,,,0.00,TxWx,2013-01-26 07:31:00,
2013-01-26 02:37:00,11.0,9.0,30.10,West,270,3.0,3.0,95,0.00,,,0.00,TxWx,2013-01-26 07:37:00,
2013-01-26 02:42:00,11.0,9.0,30.10,WNW,292,2.0,3.0,95,0.00,,,0.00,TxWx,2013-01-26 07:42:00,
2013-01-26 02:47:00,10.0,8.0,30.11,West,270,2.0,3.0,95,0.00,,,0.00,TxWx,2013-01-26 07:47:00,
2013-01-26 02:52:00,10.0,8.0,30.11,NW,315,4.0,4.0,95,0.00,,,0.00,TxWx,2013-01-26 07:52:00,
2013-01-26 02:57:00,10.0,8.0,30.10,WNW,292,3.0,3.0,95,0.00,,,0.00,TxWx,2013-01-26 07:57:00,
2013-01-26 03:02:00,10.0,8.0,30.10,WNW,292,5.0,5.0,96,0.00,,,0.00,TxWx,2013-01-26 08:02:00,
2013-01-26 03:07:00,10.0,8.0,30.11,West,270,1.0,1.0,96,0.00,,,0.00,TxWx,2013-01-26 08:07:00,
2013-01-26 03:12:00,10.0,8.0,30.11,WNW,292,0.0,0.0,96,0.00,,,0.00,TxWx,2013-01-26 08:12:00,
2013-01-26 03:17:00,10.0,8.0,30.10,WNW,292,0.0,0.0,96,0.00,,,0.00,TxWx,2013-01-26 08:17:00,
2013-01-26 03:22:00,10.0,8.0,30.11,WNW,292,2.0,3.0,96,0.00,,,0.00,TxWx,2013-01-26 08:22:00,
2013-01-26 03:27:00,10.0,8.0,30.11,WNW,292,3.0,3.0,96,0.00,,,0.00,TxWx,2013-01-26 08:27:00,
2013-01-26 03:32:00,10.0,8.0,30.10,NNW,337,3.0,4.0,96,0.00,,,0.00,TxWx,2013-01-26 08:32:00,
2013-01-26 03:37:00,10.0,8.0,30.11,NW,315,0.0,0.0,96,0.00,,,0.00,TxWx,2013-01-26 08:37:00,
2013-01-26 03:42:00,10.0,8.0,30.11,WNW,292,1.0,2.0,96,0.00,,,0.00,TxWx,2013-01-26 08:42:00,
2013-01-26 03:48:00,10.0,8.0,30.11,NW,315,2.0,3.0,96,0.00,,,0.00,TxWx,2013-01-26 08:48:00,
2013-01-26 03:53:00,10.0,8.0,30.11,NNW,337,5.0,5.0,96,0.00,,,0.00,TxWx,2013-01-26 08:53:00,
2013-01-26 03:58:00,10.0,8.0,30.11,West,270,2.0,3.0,96,0.00,,,0.00,TxWx,2013-01-26 08:58:00,
2013-01-26 04:03:00,10.0,8.0,30.11,NNE,22,0.0,0.0,96,0.00,,,0.00,TxWx,2013-01-26 09:03:00,
2013-01-26 04:08:00,10.0,8.0,30.11,North,0,1.0,1.0,96,0.00,,,0.00,TxWx,2013-01-26 09:08:00,
2013-01-26 04:13:00,10.0,8.0,30.11,East,90,0.0,0.0,96,0.00,,,0.00,TxWx,2013-01-26 09:13:00,
2013-01-26 04:18:00,9.0,7.0,30.11,NE,45,0.0,0.0,96,0.00,,,0.00,TxWx,2013-01-26 09:18:00,
2013-01-26 04:23:00,9.0,7.0,30.11,NNE,22,0.0,0.0,96,0.00,,,0.00,TxWx,2013-01-26 09:23:00,
2013-01-26 04:28:00,9.0,7.0,30.11,East,90,0.0,0.0,96,0.00,,,0.00,TxWx,2013-01-26 09:28:00,
2013-01-26 04:33:00,9.0,7.0,30.11,East,90,0.0,0.0,96,0.00,,,0.00,TxWx,2013-01-26 09:33:00,
2013-01-26 04:38:00,9.0,7.0,30.11,ENE,67,0.0,0.0,96,0.00,,,0.00,TxWx,2013-01-26 09:38:00,
2013-01-26 04:43:00,9.0,7.0,30.12,NW,315,4.0,6.0,96,0.00,,,0.00,TxWx,2013-01-26 09:43:00,
2013-01-26 04:48:00,9.0,7.0,30.12,NNW,337,2.0,3.0,96,0.00,,,0.00,TxWx,2013-01-26 09:48:00,
2013-01-26 04:54:00,9.0,7.0,30.12,West,270,1.0,4.0,96,0.00,,,0.00,TxWx,2013-01-26 09:54:00,
2013-01-26 04:59:00,10.0,8.0,30.13,WNW,292,3.0,4.0,96,0.00,,,0.00,TxWx,2013-01-26 09:59:00,
2013-01-26 05:04:00,10.0,8.0,30.13,NW,315,3.0,3.0,96,0.00,,,0.00,TxWx,2013-01-26 10:04:00,
2013-01-26 05:09:00,10.0,8.0,30.13,NNW,337,5.0,5.0,96,0.00,,,0.00,TxWx,2013-01-26 10:09:00,
2013-01-26 05:14:00,10.0,8.0,30.13,NW,315,3.0,5.0,96,0.00,,,0.00,TxWx,2013-01-26 10:14:00,
2013-01-26 05:19:00,10.0,8.0,30.13,NW,315,3.0,5.0,96,0.00,,,0.00,TxWx,2013-01-26 10:19:00,
2013-01-26 05:24:00,11.0,9.0,30.13,WNW,292,1.0,1.0,96,0.00,,,0.00,TxWx,2013-01-26 10:24:00,
2013-01-26 05:29:00,11.0,9.0,30.13,NNW,337,4.0,5.0,96,0.00,,,0.00,TxWx,2013-01-26 10:29:00,
2013-01-26 05:34:00,11.0,9.0,30.13,WNW,292,3.0,3.0,96,0.00,,,0.00,TxWx,2013-01-26 10:34:00,
2013-01-26 05:39:00,11.0,9.0,30.13,NNW,337,4.0,4.0,96,0.00,,,0.00,TxWx,2013-01-26 10:39:00,
2013-01-26 05:44:00,11.0,9.0,30.14,North,0,2.0,3.0,96,0.00,,,0.00,TxWx,2013-01-26 10:44:00,
2013-01-26 05:49:00,11.0,9.0,30.14,North,0,1.0,3.0,96,0.00,,,0.00,TxWx,2013-01-26 10:49:00,
2013-01-26 05:54:00,11.0,9.0,30.14,NE,45,2.0,3.0,96,0.00,,,0.00,TxWx,2013-01-26 10:54:00,
2013-01-26 05:59:00,11.0,9.0,30.14,NNE,22,3.0,3.0,96,0.00,,,0.00,TxWx,2013-01-26 10:59:00,
2013-01-26 06:05:00,11.0,9.0,30.14,North,0,1.0,2.0,96,0.00,,,0.00,TxWx,2013-01-26 11:05:00,
2013-01-26 06:10:00,11.0,9.0,30.14,North,0,1.0,3.0,96,0.00,,,0.00,TxWx,2013-01-26 11:10:00,
2013-01-26 06:15:00,11.0,9.0,30.14,WNW,292,2.0,3.0,96,0.00,,,0.00,TxWx,2013-01-26 11:15:00,
2013-01-26 06:20:00,11.0,9.0,30.15,NNW,337,3.0,4.0,96,0.00,,,0.00,TxWx,2013-01-26 11:20:00,
2013-01-26 06:25:00,11.0,9.0,30.15,North,0,3.0,3.0,96,0.00,,,0.00,TxWx,2013-01-26 11:25:00,
2013-01-26 06:30:00,11.0,9.0,30.15,East,90,0.0,1.0,95,0.00,,,0.00,TxWx,2013-01-26 11:30:00,
2013-01-26 06:35:00,11.0,9.0,30.15,NNW,337,8.0,8.0,95,0.00,,,0.00,TxWx,2013-01-26 11:35:00,
2013-01-26 06:40:00,11.0,9.0,30.16,NW,315,3.0,5.0,95,0.00,,,0.00,TxWx,2013-01-26 11:40:00,
2013-01-26 06:45:00,11.0,9.0,30.16,NW,315,2.0,2.0,95,0.00,,,0.00,TxWx,2013-01-26 11:45:00,
2013-01-26 06:50:00,11.0,9.0,30.16,NNW,337,4.0,4.0,95,0.00,,,0.00,TxWx,2013-01-26 11:50:00,
2013-01-26 06:55:00,11.0,9.0,30.16,NW,315,5.0,5.0,95,0.00,,,0.00,TxWx,2013-01-26 11:55:00,
2013-01-26 07:00:00,11.0,9.0,30.16,NNW,337,2.0,5.0,95,0.00,,,0.00,TxWx,2013-01-26 12:00:00,
2013-01-26 07:05:00,11.0,9.0,30.17,NW,315,4.0,5.0,95,0.00,,,0.00,TxWx,2013-01-26 12:05:00,
2013-01-26 07:10:00,11.0,9.0,30.17,NW,315,5.0,6.0,95,0.00,,,0.00,TxWx,2013-01-26 12:10:00,
2013-01-26 07:16:00,11.0,9.0,30.17,WNW,292,4.0,5.0,95,0.00,,,0.00,TxWx,2013-01-26 12:16:00,
2013-01-26 07:21:00,11.0,9.0,30.18,WNW,292,5.0,5.0,95,0.00,,,0.00,TxWx,2013-01-26 12:21:00,
2013-01-26 07:26:00,11.0,9.0,30.18,West,270,6.0,6.0,94,0.00,,,0.00,TxWx,2013-01-26 12:26:00,
2013-01-26 07:31:00,11.0,9.0,30.18,NNW,337,5.0,6.0,94,0.00,,,0.00,TxWx,2013-01-26 12:31:00,
2013-01-26 07:36:00,11.0,9.0,30.18,NW,315,5.0,5.0,94,0.00,,,0.00,TxWx,2013-01-26 12:36:00,
2013-01-26 07:41:00,11.0,9.0,30.18,NW,315,4.0,6.0,94,0.00,,,0.00,TxWx,2013-01-26 12:41:00,
2013-01-26 07:46:00,11.0,8.0,30.18,NNW,337,5.0,6.0,94,0.00,,,0.00,TxWx,2013-01-26 12:46:00,
2013-01-26 07:51:00,11.0,8.0,30.18,NW,315,3.0,4.0,94,0.00,,,0.00,TxWx,2013-01-26 12:51:00,
2013-01-26 07:56:00,11.0,8.0,30.18,NNW,337,4.0,5.0,93,0.00,,,0.00,TxWx,2013-01-26 12:56:00,
2013-01-26 08:01:00,11.0,8.0,30.18,NNW,337,4.0,5.0,93,0.00,,,0.00,TxWx,2013-01-26 13:01:00,
2013-01-26 08:06:00,11.0,8.0,30.18,NNW,337,2.0,4.0,93,0.00,,,0.00,TxWx,2013-01-26 13:06:00,
2013-01-26 08:11:00,11.0,8.0,30.18,NW,315,3.0,3.0,93,0.00,,,0.00,TxWx,2013-01-26 13:11:00,
2013-01-26 08:16:00,11.0,8.0,30.19,NW,315,3.0,3.0,93,0.00,,,0.00,TxWx,2013-01-26 13:16:00,
2013-01-26 08:21:00,11.0,8.0,30.19,NNW,337,6.0,6.0,92,0.00,,,0.00,TxWx,2013-01-26 13:21:00,
2013-01-26 08:27:00,11.0,8.0,30.19,WNW,292,5.0,6.0,92,0.00,,,0.00,TxWx,2013-01-26 13:27:00,
2013-01-26 08:32:00,11.0,8.0,30.19,NNW,337,6.0,6.0,91,0.00,,,0.00,TxWx,2013-01-26 13:32:00,
2013-01-26 08:37:00,11.0,8.0,30.19,NNW,337,2.0,3.0,91,0.00,,,0.00,TxWx,2013-01-26 13:37:00,
2013-01-26 08:42:00,11.0,8.0,30.19,NW,315,5.0,6.0,90,0.00,,,0.00,TxWx,2013-01-26 13:42:00,
2013-01-26 08:47:00,11.0,7.0,30.19,NW,315,5.0,8.0,89,0.00,,,0.00,TxWx,2013-01-26 13:47:00,
2013-01-26 08:52:00,11.0,7.0,30.20,NW,315,5.0,7.0,88,0.00,,,0.00,TxWx,2013-01-26 13:52:00,
2013-01-26 08:57:00,11.0,7.0,30.20,NNE,22,3.0,4.0,88,0.00,,,0.00,TxWx,2013-01-26 13:57:00,
2013-01-26 09:02:00,11.0,7.0,30.20,North,0,4.0,6.0,88,0.00,,,0.00,TxWx,2013-01-26 14:02:00,
2013-01-26 09:07:00,11.0,7.0,30.20,NNE,22,3.0,6.0,88,0.00,,,0.00,TxWx,2013-01-26 14:07:00,
2013-01-26 09:12:00,11.0,7.0,30.20,NNW,337,5.0,5.0,88,0.00,,,0.00,TxWx,2013-01-26 14:12:00,
2013-01-26 09:17:00,11.0,7.0,30.20,NW,315,4.0,5.0,87,0.00,,,0.00,TxWx,2013-01-26 14:17:00,
2013-01-26 09:23:00,11.0,7.0,30.21,West,270,0.0,1.0,88,0.00,,,0.00,TxWx,2013-01-26 14:23:00,
2013-01-26 09:28:00,11.0,7.0,30.21,NNW,337,6.0,8.0,88,0.00,,,0.00,TxWx,2013-01-26 14:28:00,
2013-01-26 09:33:00,11.0,7.0,30.21,NNW,337,5.0,5.0,87,0.00,,,0.00,TxWx,2013-01-26 14:33:00,
2013-01-26 09:38:00,11.0,7.0,30.21,NNW,337,5.0,6.0,87,0.00,,,0.00,TxWx,2013-01-26 14:38:00,
2013-01-26 09:43:00,11.0,7.0,30.22,North,0,4.0,6.0,87,0.00,,,0.00,TxWx,2013-01-26 14:43:00,
2013-01-26 09:48:00,11.0,7.0,30.22,North,0,5.0,5.0,87,0.00,,,0.00,TxWx,2013-01-26 14:48:00,
2013-01-26 09:53:00,11.0,7.0,30.22,NNE,22,1.0,1.0,87,0.00,,,0.00,TxWx,2013-01-26 14:53:00,
2013-01-26 09:58:00,11.0,7.0,30.22,NW,315,3.0,3.0,87,0.00,,,0.00,TxWx,2013-01-26 14:58:00,
2013-01-26 10:03:00,12.0,8.0,30.22,NNW,337,2.0,3.0,87,0.00,,,0.00,TxWx,2013-01-26 15:03:00,
2013-01-26 10:08:00,12.0,8.0,30.22,NE,45,3.0,5.0,87,0.00,,,0.00,TxWx,2013-01-26 15:08:00,
2013-01-26 10:13:00,12.0,8.0,30.22,NNE,22,5.0,5.0,87,0.00,,,0.00,TxWx,2013-01-26 15:13:00,
2013-01-26 10:18:00,12.0,8.0,30.22,NNE,22,6.0,6.0,87,0.00,,,0.00,TxWx,2013-01-26 15:18:00,
2013-01-26 10:23:00,12.0,8.0,30.22,NW,315,5.0,5.0,87,0.00,,,0.00,TxWx,2013-01-26 15:23:00,
2013-01-26 10:29:00,12.0,8.0,30.22,NW,315,4.0,5.0,87,0.00,,,0.00,TxWx,2013-01-26 15:29:00,
2013-01-26 10:34:00,12.0,8.0,30.23,NW,315,5.0,5.0,87,0.00,,,0.00,TxWx,2013-01-26 15:34:00,
2013-01-26 10:39:00,13.0,9.0,30.22,NE,45,1.0,1.0,87,0.00,,,0.00,TxWx,2013-01-26 15:39:00,
2013-01-26 10:44:00,13.0,9.0,30.22,North,0,3.0,3.0,87,0.00,,,0.00,TxWx,2013-01-26 15:44:00,
2013-01-26 10:49:00,13.0,9.0,30.22,NNW,337,2.0,3.0,87,0.00,,,0.00,TxWx,2013-01-26 15:49:00,
2013-01-26 10:54:00,13.0,9.0,30.22,WNW,292,1.0,2.0,86,0.00,,,0.00,TxWx,2013-01-26 15:54:00,
2013-01-26 10:59:00,13.0,8.0,30.22,NNE,22,4.0,5.0,85,0.00,,,0.00,TxWx,2013-01-26 15:59:00,
2013-01-26 11:04:00,13.0,8.0,30.22,North,0,2.0,3.0,85,0.00,,,0.00,TxWx,2013-01-26 16:04:00,
2013-01-26 11:09:00,14.0,9.0,30.22,NNW,337,5.0,5.0,86,0.00,,,0.00,TxWx,2013-01-26 16:09:00,
2013-01-26 11:14:00,14.0,9.0,30.22,ENE,67,2.0,3.0,85,0.00,,,0.00,TxWx,2013-01-26 16:14:00,
2013-01-26 11:19:00,14.0,9.0,30.22,NNE,22,3.0,3.0,85,0.00,,,0.00,TxWx,2013-01-26 16:19:00,
2013-01-26 11:24:00,15.0,10.0,30.22,NNE,22,2.0,2.0,85,0.00,,,0.00,TxWx,2013-01-26 16:24:00,
2013-01-26 11:29:00,15.0,10.0,30.21,North,0,3.0,3.0,83,0.00,,,0.00,TxWx,2013-01-26 16:29:00,
2013-01-26 11:34:00,15.0,10.0,30.21,NNE,22,3.0,5.0,83,0.00,,,0.00,TxWx,2013-01-26 16:34:00,
2013-01-26 11:39:00,15.0,9.0,30.21,WNW,292,5.0,6.0,82,0.00,,,0.00,TxWx,2013-01-26 16:39:00,
2013-01-26 11:44:00,15.0,9.0,30.21,NNW,337,3.0,4.0,81,0.00,,,0.00,TxWx,2013-01-26 16:44:00,
2013-01-26 11:50:00,15.0,9.0,30.21,East,90,1.0,1.0,81,0.00,,,0.00,TxWx,2013-01-26 16:50:00,
2013-01-26 11:55:00,16.0,10.0,30.21,North,0,2.0,3.0,81,0.00,,,0.00,TxWx,2013-01-26 16:55:00,
2013-01-26 12:00:00,16.0,10.0,30.21,NE,45,3.0,4.0,80,0.00,,,0.00,TxWx,2013-01-26 17:00:00,
2013-01-26 12:05:00,16.0,9.0,30.20,West,270,4.0,5.0,78,0.00,,,0.00,TxWx,2013-01-26 17:05:00,
2013-01-26 12:10:00,17.0,10.0,30.20,SW,225,2.0,3.0,78,0.00,,,0.00,TxWx,2013-01-26 17:10:00,
2013-01-26 12:15:00,17.0,10.0,30.20,NNE,22,3.0,3.0,77,0.00,,,0.00,TxWx,2013-01-26 17:15:00,
2013-01-26 12:20:00,18.0,11.0,30.20,SE,135,1.0,2.0,76,0.00,,,0.00,TxWx,2013-01-26 17:20:00,
2013-01-26 12:25:00,18.0,10.0,30.19,NNW,337,5.0,5.0,75,0.00,,,0.00,TxWx,2013-01-26 17:25:00,
2013-01-26 12:30:00,18.0,9.0,30.19,NNW,337,6.0,6.0,72,0.00,,,0.00,TxWx,2013-01-26 17:30:00,
2013-01-26 12:35:00,18.0,9.0,30.19,South,180,3.0,4.0,69,0.00,,,0.00,TxWx,2013-01-26 17:35:00,
2013-01-26 12:40:00,18.0,8.0,30.19,SW,225,5.0,7.0,66,0.00,,,0.00,TxWx,2013-01-26 17:40:00,
2013-01-26 12:45:00,18.0,6.0,30.19,West,270,6.0,6.0,62,0.00,,,0.00,TxWx,2013-01-26 17:45:00,
2013-01-26 12:50:00,18.0,6.0,30.19,West,270,5.0,5.0,62,0.00,,,0.00,TxWx,2013-01-26 17:50:00,
2013-01-26 12:55:00,18.0,5.0,30.18,NNW,337,5.0,6.0,60,0.00,,,0.00,TxWx,2013-01-26 17:55:00,
2013-01-26 13:01:00,19.0,6.0,30.18,SW,225,3.0,6.0,60,0.00,,,0.00,TxWx,2013-01-26 18:01:00,
2013-01-26 13:06:00,19.0,6.0,30.17,North,0,6.0,9.0,59,0.00,,,0.00,TxWx,2013-01-26 18:06:00,
2013-01-26 13:11:00,18.0,4.0,30.18,NNW,337,9.0,9.0,57,0.00,,,0.00,TxWx,2013-01-26 18:11:00,
2013-01-26 13:16:00,18.0,4.0,30.17,NNW,337,6.0,8.0,56,0.00,,,0.00,TxWx,2013-01-26 18:16:00,
2013-01-26 13:21:00,18.0,4.0,30.17,NNW,337,6.0,6.0,57,0.00,,,0.00,TxWx,2013-01-26 18:21:00,
2013-01-26 13:26:00,19.0,5.0,30.17,North,0,3.0,3.0,57,0.00,,,0.00,TxWx,2013-01-26 18:26:00,
2013-01-26 13:31:00,19.0,5.0,30.19,NNW,337,4.0,5.0,57,0.00,,,0.00,TxWx,2013-01-26 18:31:00,
2013-01-26 13:36:00,19.0,4.0,30.19,West,270,10.0,10.0,55,0.00,,,0.00,TxWx,2013-01-26 18:36:00,
2013-01-26 13:41:00,19.0,4.0,30.19,NW,315,9.0,10.0,54,0.00,,,0.00,TxWx,2013-01-26 18:41:00,
2013-01-26 13:46:00,19.0,4.0,30.19,WNW,292,5.0,6.0,54,0.00,,,0.00,TxWx,2013-01-26 18:46:00,
2013-01-26 13:51:00,20.0,5.0,30.18,WNW,292,5.0,5.0,54,0.00,,,0.00,TxWx,2013-01-26 18:51:00,
2013-01-26 13:56:00,20.0,5.0,30.18,NW,315,5.0,5.0,54,0.00,,,0.00,TxWx,2013-01-26 18:56:00,
2013-01-26 14:00:00,13.0,5.0,30.38,West,270,0.0,1.0,74,0.00,,,0.00,TxWx,2013-01-26 19:00:00,
2013-01-26 14:01:00,13.0,5.0,30.38,South,180,3.0,3.0,74,0.00,,,0.00,TxWx,2013-01-26 19:01:00,
2013-01-26 14:02:00,21.0,6.0,30.18,NW,315,5.0,5.0,54,0.00,,,0.00,TxWx,2013-01-26 19:02:00,
2013-01-26 14:03:00,13.0,5.0,30.38,ESE,112,0.0,0.0,74,0.00,,,0.00,TxWx,2013-01-26 19:03:00,
2013-01-26 14:04:00,13.0,5.0,30.38,ESE,112,0.0,0.0,74,0.00,,,0.00,TxWx,2013-01-26 19:04:00,
2013-01-26 14:07:00,21.0,6.0,30.19,WNW,292,10.0,10.0,53,0.00,,,0.00,TxWx,2013-01-26 19:07:00,
2013-01-26 14:12:00,21.0,6.0,30.19,WSW,247,5.0,6.0,54,0.00,,,0.00,TxWx,2013-01-26 19:12:00,
2013-01-26 14:16:00,13.0,5.0,30.38,ESE,112,0.0,0.0,74,0.00,,,0.00,TxWx,2013-01-26 19:16:00,
2013-01-26 14:17:00,21.0,6.0,30.19,WSW,247,5.0,5.0,53,0.00,,,0.00,TxWx,2013-01-26 19:17:00,
2013-01-26 14:18:00,13.0,5.0,30.38,WNW,292,0.0,0.0,74,0.00,,,0.00,TxWx,2013-01-26 19:18:00,
2013-01-26 14:19:00,13.0,5.0,30.38,NW,315,0.0,0.0,74,0.00,,,0.00,TxWx,2013-01-26 19:19:00,
2013-01-26 14:20:00,13.0,5.0,30.38,NW,315,0.0,0.0,74,0.00,,,0.00,TxWx,2013-01-26 19:20:00,
2013-01-26 14:22:00,21.0,6.0,30.19,WNW,292,3.0,3.0,53,0.00,,,0.00,TxWx,2013-01-26 19:22:00,
2013-01-26 14:27:00,21.0,6.0,30.19,SW,225,6.0,6.0,53,0.00,,,0.00,TxWx,2013-01-26 19:27:00,
2013-01-26 14:32:00,21.0,5.0,30.19,SSW,202,6.0,6.0,52,0.00,,,0.00,TxWx,2013-01-26 19:32:00,
2013-01-26 14:37:00,21.0,5.0,30.19,WNW,292,8.0,10.0,52,0.00,,,0.00,TxWx,2013-01-26 19:37:00,
2013-01-26 14:42:00,21.0,5.0,30.20,SSW,202,8.0,8.0,52,0.00,,,0.00,TxWx,2013-01-26 19:42:00,
2013-01-26 14:47:00,21.0,6.0,30.20,WSW,247,11.0,11.0,53,0.00,,,0.00,TxWx,2013-01-26 19:47:00,
2013-01-26 14:52:00,21.0,6.0,30.20,WNW,292,11.0,11.0,53,0.00,,,0.00,TxWx,2013-01-26 19:52:00,
2013-01-26 14:57:00,21.0,6.0,30.20,West,270,8.0,9.0,53,0.00,,,0.00,TxWx,2013-01-26 19:57:00,
2013-01-26 15:02:00,21.0,6.0,30.21,West,270,7.0,8.0,53,0.00,,,0.00,TxWx,2013-01-26 20:02:00,
2013-01-26 15:07:00,21.0,6.0,30.21,West,270,4.0,5.0,54,0.00,,,0.00,TxWx,2013-01-26 20:07:00,
2013-01-26 15:13:00,21.0,6.0,30.21,WSW,247,4.0,8.0,54,0.00,,,0.00,TxWx,2013-01-26 20:13:00,
2013-01-26 15:18:00,21.0,5.0,30.21,WSW,247,11.0,14.0,53,0.00,,,0.00,TxWx,2013-01-26 20:18:00,
2013-01-26 15:23:00,21.0,5.0,30.21,SSW,202,4.0,9.0,53,0.00,,,0.00,TxWx,2013-01-26 20:23:00,
2013-01-26 15:28:00,21.0,5.0,30.21,WNW,292,3.0,6.0,52,0.00,,,0.00,TxWx,2013-01-26 20:28:00,
2013-01-26 15:33:00,21.0,5.0,30.21,West,270,3.0,6.0,53,0.00,,,0.00,TxWx,2013-01-26 20:33:00,
2013-01-26 15:34:00,11.0,5.0,30.39,SSW,202,3.0,3.0,82,0.00,,,0.00,TxWx,2013-01-26 20:34:00,
2013-01-26 15:35:00,11.0,5.0,30.39,SW,225,4.0,6.0,82,0.00,,,0.00,TxWx,2013-01-26 20:35:00,
2013-01-26 15:36:00,11.0,5.0,30.39,South,180,2.0,4.0,82,0.00,,,0.00,TxWx,2013-01-26 20:36:00,
2013-01-26 15:37:00,11.0,5.0,30.40,SW,225,3.0,5.0,82,0.00,,,0.00,TxWx,2013-01-26 20:37:00,
2013-01-26 15:38:00,21.0,5.0,30.21,WSW,247,8.0,11.0,52,0.00,,,0.00,TxWx,2013-01-26 20:38:00,
2013-01-26 15:43:00,21.0,5.0,30.22,WSW,247,10.0,10.0,52,0.00,,,0.00,TxWx,2013-01-26 20:43:00,
2013-01-26 15:48:00,21.0,5.0,30.22,West,270,11.0,11.0,52,0.00,,,0.00,TxWx,2013-01-26 20:48:00,
2013-01-26 15:53:00,21.0,5.0,30.22,West,270,3.0,8.0,52,0.00,,,0.00,TxWx,2013-01-26 20:53:00,
2013-01-26 15:58:00,21.0,5.0,30.22,West,270,6.0,8.0,52,0.00,,,0.00,TxWx,2013-01-26 20:58:00,
2013-01-26 16:03:00,21.0,5.0,30.22,West,270,8.0,13.0,52,0.00,,,0.00,TxWx,2013-01-26 21:03:00,
2013-01-26 16:08:00,21.0,5.0,30.22,WSW,247,9.0,11.0,52,0.00,,,0.00,TxWx,2013-01-26 21:08:00,
2013-01-26 16:13:00,21.0,5.0,30.22,SW,225,6.0,8.0,52,0.00,,,0.00,TxWx,2013-01-26 21:13:00,
2013-01-26 16:14:00,10.0,5.0,30.41,North,0,0.0,1.0,83,0.00,,,0.00,TxWx,2013-01-26 21:14:00,
2013-01-26 16:15:00,10.0,5.0,30.41,NE,45,0.0,0.0,84,0.00,,,0.00,TxWx,2013-01-26 21:15:00,
2013-01-26 16:16:00,10.0,5.0,30.41,NE,45,0.0,0.0,84,0.00,,,0.00,TxWx,2013-01-26 21:16:00,
2013-01-26 16:17:00,10.0,5.0,30.41,NE,45,0.0,0.0,84,0.00,,,0.00,TxWx,2013-01-26 21:17:00,
2013-01-26 16:18:00,21.0,5.0,30.22,West,270,5.0,5.0,52,0.00,,,0.00,TxWx,2013-01-26 21:18:00,
2013-01-26 16:24:00,21.0,5.0,30.22,West,270,3.0,5.0,52,0.00,,,0.00,TxWx,2013-01-26 21:24:00,
2013-01-26 16:29:00,21.0,5.0,30.22,SW,225,5.0,6.0,53,0.00,,,0.00,TxWx,2013-01-26 21:29:00,
2013-01-26 16:34:00,21.0,5.0,30.23,WSW,247,5.0,8.0,52,0.00,,,0.00,TxWx,2013-01-26 21:34:00,
2013-01-26 16:39:00,20.0,4.0,30.23,East,90,1.0,3.0,53,0.00,,,0.00,TxWx,2013-01-26 21:39:00,
2013-01-26 16:44:00,20.0,4.0,30.23,NNW,337,8.0,11.0,53,0.00,,,0.00,TxWx,2013-01-26 21:44:00,
2013-01-26 16:49:00,20.0,5.0,30.24,WNW,292,8.0,10.0,53,0.00,,,0.00,TxWx,2013-01-26 21:49:00,
2013-01-26 16:54:00,20.0,5.0,30.24,West,270,3.0,8.0,54,0.00,,,0.00,TxWx,2013-01-26 21:54:00,
2013-01-26 16:56:00,10.0,6.0,30.42,SSW,202,0.0,0.0,86,0.00,,,0.00,TxWx,2013-01-26 21:56:00,
2013-01-26 16:57:00,10.0,6.0,30.42,SSW,202,0.0,0.0,86,0.00,,,0.00,TxWx,2013-01-26 21:57:00,
2013-01-26 16:58:00,10.0,6.0,30.42,SSW,202,0.0,0.0,86,0.00,,,0.00,TxWx,2013-01-26 21:58:00,
2013-01-26 16:59:00,20.0,5.0,30.24,West,270,11.0,11.0,54,0.00,,,0.00,TxWx,2013-01-26 21:59:00,
2013-01-26 17:04:00,19.0,4.0,30.24,WNW,292,9.0,11.0,54,0.00,,,0.00,TxWx,2013-01-26 22:04:00,
2013-01-26 17:09:00,19.0,4.0,30.25,WSW,247,7.0,10.0,55,0.00,,,0.00,TxWx,2013-01-26 22:09:00,
2013-01-26 17:14:00,19.0,4.0,30.25,West,270,8.0,8.0,55,0.00,,,0.00,TxWx,2013-01-26 22:14:00,
2013-01-26 17:19:00,19.0,5.0,30.25,SW,225,8.0,10.0,56,0.00,,,0.00,TxWx,2013-01-26 22:19:00,
2013-01-26 17:24:00,19.0,5.0,30.25,NW,315,8.0,10.0,56,0.00,,,0.00,TxWx,2013-01-26 22:24:00,
2013-01-26 17:29:00,19.0,5.0,30.26,West,270,10.0,10.0,57,0.00,,,0.00,TxWx,2013-01-26 22:29:00,
2013-01-26 17:35:00,19.0,5.0,30.26,WNW,292,8.0,8.0,57,0.00,,,0.00,TxWx,2013-01-26 22:35:00,
2013-01-26 17:40:00,18.0,5.0,30.26,WSW,247,4.0,6.0,58,0.00,,,0.00,TxWx,2013-01-26 22:40:00,
2013-01-26 17:45:00,18.0,5.0,30.26,West,270,6.0,6.0,58,0.00,,,0.00,TxWx,2013-01-26 22:45:00,
2013-01-26 17:50:00,18.0,5.0,30.27,WSW,247,6.0,6.0,59,0.00,,,0.00,TxWx,2013-01-26 22:50:00,
2013-01-26 17:55:00,18.0,5.0,30.27,West,270,2.0,4.0,59,0.00,,,0.00,TxWx,2013-01-26 22:55:00,
2013-01-26 18:00:00,18.0,5.0,30.28,West,270,2.0,6.0,59,0.00,,,0.00,TxWx,2013-01-26 23:00:00,
2013-01-26 18:05:00,18.0,5.0,30.28,West,270,6.0,8.0,60,0.00,,,0.00,TxWx,2013-01-26 23:05:00,
2013-01-26 18:10:00,18.0,5.0,30.28,WSW,247,9.0,9.0,60,0.00,,,0.00,TxWx,2013-01-26 23:10:00,
2013-01-26 18:15:00,18.0,6.0,30.29,WNW,292,6.0,10.0,61,0.00,,,0.00,TxWx,2013-01-26 23:15:00,
2013-01-26 18:20:00,18.0,6.0,30.29,South,180,6.0,7.0,61,0.00,,,0.00,TxWx,2013-01-26 23:20:00,
2013-01-26 18:25:00,18.0,6.0,30.29,SSW,202,3.0,5.0,61,0.00,,,0.00,TxWx,2013-01-26 23:25:00,
2013-01-26 18:30:00,17.0,5.0,30.29,SW,225,5.0,8.0,61,0.00,,,0.00,TxWx,2013-01-26 23:30:00,
2013-01-26 18:36:00,17.0,5.0,30.30,SW,225,4.0,5.0,62,0.00,,,0.00,TxWx,2013-01-26 23:36:00,
2013-01-26 18:41:00,17.0,5.0,30.30,West,270,4.0,6.0,62,0.00,,,0.00,TxWx,2013-01-26 23:41:00,
2013-01-26 18:46:00,17.0,5.0,30.30,South,180,2.0,4.0,62,0.00,,,0.00,TxWx,2013-01-26 23:46:00,
2013-01-26 18:51:00,17.0,5.0,30.30,WNW,292,1.0,3.0,62,0.00,,,0.00,TxWx,2013-01-26 23:51:00,
2013-01-26 18:56:00,17.0,5.0,30.30,West,270,3.0,5.0,62,0.00,,,0.00,TxWx,2013-01-26 23:56:00,
2013-01-26 19:01:00,17.0,5.0,30.31,SW,225,4.0,5.0,62,0.00,,,0.00,TxWx,2013-01-27 00:01:00,
2013-01-26 19:06:00,17.0,5.0,30.31,WSW,247,6.0,10.0,62,0.00,,,0.00,TxWx,2013-01-27 00:06:00,
2013-01-26 19:11:00,17.0,5.0,30.31,West,270,3.0,4.0,62,0.00,,,0.00,TxWx,2013-01-27 00:11:00,
2013-01-26 19:16:00,17.0,5.0,30.31,West,270,1.0,1.0,62,0.00,,,0.00,TxWx,2013-01-27 00:16:00,
2013-01-26 19:21:00,17.0,5.0,30.31,West,270,1.0,3.0,62,0.00,,,0.00,TxWx,2013-01-27 00:21:00,
2013-01-26 19:26:00,17.0,5.0,30.31,West,270,2.0,2.0,63,0.00,,,0.00,TxWx,2013-01-27 00:26:00,
2013-01-26 19:31:00,17.0,5.0,30.31,SSW,202,0.0,0.0,63,0.00,,,0.00,TxWx,2013-01-27 00:31:00,
2013-01-26 19:36:00,17.0,5.0,30.31,NE,45,0.0,0.0,63,0.00,,,0.00,TxWx,2013-01-27 00:36:00,
2013-01-26 19:42:00,17.0,6.0,30.31,NNW,337,3.0,3.0,63,0.00,,,0.00,TxWx,2013-01-27 00:42:00,
2013-01-26 19:47:00,17.0,6.0,30.31,WNW,292,2.0,2.0,63,0.00,,,0.00,TxWx,2013-01-27 00:47:00,
2013-01-26 19:52:00,16.0,5.0,30.32,South,180,0.0,0.0,63,0.00,,,0.00,TxWx,2013-01-27 00:52:00,
2013-01-26 19:57:00,16.0,5.0,30.32,SSE,157,0.0,0.0,63,0.00,,,0.00,TxWx,2013-01-27 00:57:00,
2013-01-26 20:02:00,16.0,5.0,30.32,SSE,157,0.0,0.0,64,0.00,,,0.00,TxWx,2013-01-27 01:02:00,
2013-01-26 20:07:00,16.0,5.0,30.32,South,180,0.0,0.0,64,0.00,,,0.00,TxWx,2013-01-27 01:07:00,
2013-01-26 20:12:00,16.0,5.0,30.32,NW,315,1.0,3.0,64,0.00,,,0.00,TxWx,2013-01-27 01:12:00,
2013-01-26 20:17:00,16.0,5.0,30.32,NNW,337,0.0,0.0,64,0.00,,,0.00,TxWx,2013-01-27 01:17:00,
2013-01-26 20:22:00,16.0,5.0,30.32,SSE,157,0.0,0.0,65,0.00,,,0.00,TxWx,2013-01-27 01:22:00,
2013-01-26 20:27:00,16.0,5.0,30.32,SSE,157,0.0,0.0,65,0.00,,,0.00,TxWx,2013-01-27 01:27:00,
2013-01-26 20:32:00,16.0,5.0,30.32,ESE,112,0.0,0.0,65,0.00,,,0.00,TxWx,2013-01-27 01:32:00,
2013-01-26 20:37:00,16.0,5.0,30.33,SSE,157,0.0,0.0,65,0.00,,,0.00,TxWx,2013-01-27 01:37:00,
2013-01-26 20:42:00,15.0,4.0,30.33,SE,135,0.0,0.0,65,0.00,,,0.00,TxWx,2013-01-27 01:42:00,
2013-01-26 20:48:00,15.0,5.0,30.33,West,270,1.0,3.0,66,0.00,,,0.00,TxWx,2013-01-27 01:48:00,
2013-01-26 20:53:00,15.0,5.0,30.33,ENE,67,0.0,0.0,66,0.00,,,0.00,TxWx,2013-01-27 01:53:00,
2013-01-26 20:58:00,15.0,5.0,30.33,West,270,4.0,6.0,67,0.00,,,0.00,TxWx,2013-01-27 01:58:00,
2013-01-26 21:03:00,15.0,5.0,30.33,North,0,1.0,2.0,67,0.00,,,0.00,TxWx,2013-01-27 02:03:00,
2013-01-26 21:08:00,15.0,5.0,30.34,WNW,292,0.0,0.0,68,0.00,,,0.00,TxWx,2013-01-27 02:08:00,
2013-01-26 21:13:00,15.0,5.0,30.34,WSW,247,4.0,5.0,68,0.00,,,0.00,TxWx,2013-01-27 02:13:00,
2013-01-26 21:18:00,15.0,5.0,30.34,West,270,0.0,0.0,68,0.00,,,0.00,TxWx,2013-01-27 02:18:00,
2013-01-26 21:23:00,15.0,6.0,30.35,WNW,292,5.0,5.0,69,0.00,,,0.00,TxWx,2013-01-27 02:23:00,
2013-01-26 21:28:00,15.0,6.0,30.35,SSW,202,0.0,2.0,69,0.00,,,0.00,TxWx,2013-01-27 02:28:00,
2013-01-26 21:33:00,15.0,6.0,30.35,SSW,202,3.0,3.0,69,0.00,,,0.00,TxWx,2013-01-27 02:33:00,
2013-01-26 21:38:00,15.0,6.0,30.35,West,270,4.0,5.0,70,0.00,,,0.00,TxWx,2013-01-27 02:38:00,
2013-01-26 21:44:00,15.0,6.0,30.36,West,270,3.0,6.0,70,0.00,,,0.00,TxWx,2013-01-27 02:44:00,
2013-01-26 21:49:00,15.0,6.0,30.36,West,270,0.0,0.0,70,0.00,,,0.00,TxWx,2013-01-27 02:49:00,
2013-01-26 21:54:00,15.0,6.0,30.36,SW,225,1.0,3.0,71,0.00,,,0.00,TxWx,2013-01-27 02:54:00,
2013-01-26 21:59:00,15.0,6.0,30.36,WSW,247,3.0,3.0,71,0.00,,,0.00,TxWx,2013-01-27 02:59:00,
2013-01-26 22:04:00,15.0,6.0,30.36,WSW,247,2.0,3.0,71,0.00,,,0.00,TxWx,2013-01-27 03:04:00,
2013-01-26 22:09:00,15.0,6.0,30.36,NE,45,0.0,0.0,71,0.00,,,0.00,TxWx,2013-01-27 03:09:00,
2013-01-26 22:14:00,15.0,6.0,30.37,NNE,22,1.0,2.0,71,0.00,,,0.00,TxWx,2013-01-27 03:14:00,
2013-01-26 22:19:00,15.0,6.0,30.37,ESE,112,0.0,0.0,71,0.00,,,0.00,TxWx,2013-01-27 03:19:00,
2013-01-26 22:24:00,15.0,6.0,30.37,West,270,0.0,0.0,71,0.00,,,0.00,TxWx,2013-01-27 03:24:00,
2013-01-26 22:29:00,15.0,6.0,30.37,NNW,337,1.0,2.0,71,0.00,,,0.00,TxWx,2013-01-27 03:29:00,
2013-01-26 22:35:00,15.0,6.0,30.37,NE,45,0.0,0.0,71,0.00,,,0.00,TxWx,2013-01-27 03:35:00,
2013-01-26 22:40:00,14.0,5.0,30.37,ENE,67,0.0,0.0,71,0.00,,,0.00,TxWx,2013-01-27 03:40:00,
2013-01-26 22:45:00,14.0,5.0,30.38,NE,45,0.0,0.0,71,0.00,,,0.00,TxWx,2013-01-27 03:45:00,
2013-01-26 22:50:00,14.0,5.0,30.37,NE,45,0.0,0.0,71,0.00,,,0.00,TxWx,2013-01-27 03:50:00,
2013-01-26 22:55:00,14.0,5.0,30.38,NNW,337,1.0,2.0,71,0.00,,,0.00,TxWx,2013-01-27 03:55:00,
2013-01-26 23:00:00,14.0,5.0,30.37,West,270,0.0,0.0,71,0.00,,,0.00,TxWx,2013-01-27 04:00:00,
2013-01-26 23:05:00,14.0,5.0,30.38,West,270,2.0,2.0,71,0.00,,,0.00,TxWx,2013-01-27 04:05:00,
2013-01-26 23:10:00,14.0,5.0,30.38,NNE,22,0.0,0.0,71,0.00,,,0.00,TxWx,2013-01-27 04:10:00,
2013-01-26 23:15:00,14.0,5.0,30.38,SSE,157,0.0,0.0,71,0.00,,,0.00,TxWx,2013-01-27 04:15:00,
2013-01-26 23:20:00,14.0,5.0,30.38,SSE,157,0.0,0.0,71,0.00,,,0.00,TxWx,2013-01-27 04:20:00,
2013-01-26 23:25:00,13.0,5.0,30.38,SSE,157,0.0,0.0,72,0.00,,,0.00,TxWx,2013-01-27 04:25:00,
2013-01-26 23:31:00,13.0,5.0,30.38,SSE,157,0.0,0.0,72,0.00,,,0.00,TxWx,2013-01-27 04:31:00,
2013-01-26 23:36:00,13.0,5.0,30.38,South,180,0.0,0.0,73,0.00,,,0.00,TxWx,2013-01-27 04:36:00,
2013-01-26 23:41:00,13.0,5.0,30.38,SSW,202,3.0,4.0,73,0.00,,,0.00,TxWx,2013-01-27 04:41:00,
2013-01-26 23:46:00,13.0,5.0,30.38,SW,225,4.0,4.0,73,0.00,,,0.00,TxWx,2013-01-27 04:46:00,
2013-01-26 23:51:00,13.0,5.0,30.38,SSW,202,4.0,4.0,73,0.00,,,0.00,TxWx,2013-01-27 04:51:00,
2013-01-26 23:56:00,13.0,5.0,30.38,SSE,157,2.0,4.0,74,0.00,,,0.00,TxWx,2013-01-27 04:56:00,